Last 30 Days

Alpine-Summit 8643' (Ward Mt.)

Daily Data | America/Los_Angeles
as of 2/18/20 9:14 AM PST
Date Daily Max Temp (°F) Max Temp Time Daily Min Temp (°F) Min Temp Time Wind Spd (mph) Daily Max Wind (mph) Max RH (%) Min RH (%) Wet Bulb (°F)
2/17/20 45.5 1509 22.1 0606 20.1 45.3 98 18 23.5
2/16/20 41.4 1552 27.3 0656 33.5 75.3 96 56 28.7
2/15/20 39.5 1502 27.6 0731 34.9 56.0 92 38 27.1
2/14/20 42.2 1553 30.3 2319 15.4 35.1 77 45 29.6
2/13/20 41.1 1456 27.1 0000 24.3 45.3 88 18 26.6
2/12/20 43.2 1424 26.6 2314 23.7 46.5 76 34 26.3
2/11/20 42.2 1503 19.4 0650 42.3 78.8 79 36 23.8
2/10/20 35.1 1552 17.5 0513 59.0 91.3 79 42 20.4
2/9/20 25.6 1504 13.3 0635 70.1 125.4 93 52 16.0
2/8/20 37.8 1457 15.1 2333 40.2 66.3 91 40 25.1
2/7/20 47.8 1441 32.1 0340 23.1 41.1 60 20 28.2
2/6/20 45.9 1448 28.2 0308 27.6 46.8 100 37 29.8
2/5/20 38.6 1340 20.9 0414 34.3 60.1 99 43 26.6
2/4/20 25.3 1553 6.7 0517 51.7 101.5 78 39 11.2
2/3/20 17.1 1534 4.2 0551 46.2 104.9 91 43 7.4
2/2/20 34.6 0024 8.3 2346 34.9 72.0 98 48 20.9
2/1/20 50.5 1504 33.9 2334 22.8 48.5 56 4 30.1
1/31/20 50.0 1517 33.6 0003 14.2 38.6 67 4 33.7
1/30/20 45.9 1432 30.7 2213 22.9 47.0 100 65 33.8
1/29/20 37.2 1533 19.3 0634 29.1 60.0 97 45 25.3
1/28/20 32.1 1235 20.3 0355 34.4 82.4 99 63 23.7
1/27/20 32.6 1318 21.1 2225 31.3 46.8 100 79 26.8
1/26/20 33.0 0241 24.6 2259 39.6 73.5 100 99 29.3
1/25/20 42.5 1317 27.3 0057 19.0 56.2 100 - 33.0
1/24/20 33.1 1507 28.3 2211 39.0 90.4 100 71 30.1
1/23/20 38.1 1408 29.9 0117 16.0 51.2 100 96 33.4
1/22/20 33.3 1553 27.2 0527 25.8 82.7 100 99 30.3
1/21/20 28.5 2358 23.8 0722 53.3 91.1 99 96 25.5
1/20/20 36.2 1054 24.5 2251 33.6 61.8 96 39 26.6
1/19/20 46.9 1441 29.3 0027 14.4 45.2 76 25 28.8
Max 50.5 - 33.9 - 70.1 125.4 100 99 33.8
Avg - - - - 32.6 - - - 26.1
Min 17.1 - 4.2 - 14.2 35.1 56 4 7.4